createdAt,value
2019-03-22T00:02:29.824Z,10.00
2019-03-22T00:05:00.790Z,10.00
2019-03-22T00:07:31.750Z,10.00
2019-03-22T00:10:03.888Z,10.00
2019-03-22T00:12:35.258Z,10.00
2019-03-22T00:15:07.060Z,10.00
2019-03-22T00:17:38.996Z,10.00
2019-03-22T00:20:11.840Z,9.90
2019-03-22T00:22:42.735Z,9.90
2019-03-22T00:25:13.848Z,9.90
2019-03-22T00:27:44.723Z,9.90
2019-03-22T00:30:15.710Z,9.90
2019-03-22T00:32:46.649Z,9.90
2019-03-22T00:35:17.627Z,9.90
2019-03-22T00:37:48.618Z,9.90
2019-03-22T00:40:19.527Z,9.80
2019-03-22T00:42:50.450Z,9.80
2019-03-22T00:45:21.384Z,9.80
2019-03-22T00:47:52.360Z,9.80
2019-03-22T00:50:23.326Z,9.80
2019-03-22T00:52:54.226Z,9.80
2019-03-22T00:55:25.164Z,9.80
2019-03-22T00:57:56.252Z,9.70
2019-03-22T01:00:27.144Z,9.70
2019-03-22T01:02:58.029Z,9.70
2019-03-22T01:05:28.934Z,9.70
2019-03-22T01:07:59.889Z,9.70
2019-03-22T01:10:30.754Z,9.70
2019-03-22T01:13:01.678Z,9.60
2019-03-22T01:15:32.525Z,9.60
2019-03-22T01:18:03.471Z,9.60
2019-03-22T01:20:34.396Z,9.60
2019-03-22T01:23:05.292Z,9.60
2019-03-22T01:25:36.156Z,9.60
2019-03-22T01:28:07.073Z,9.60
2019-03-22T01:30:37.986Z,9.70
2019-03-22T01:33:08.897Z,9.60
2019-03-22T01:35:40.096Z,9.60
2019-03-22T01:38:10.973Z,9.60
2019-03-22T01:40:41.936Z,9.60
2019-03-22T01:43:12.849Z,9.70
2019-03-22T01:45:43.748Z,9.70
2019-03-22T01:48:14.670Z,9.70
2019-03-22T01:50:45.666Z,9.70
2019-03-22T01:53:16.621Z,9.70
2019-03-22T01:55:47.603Z,9.70
2019-03-22T01:58:18.674Z,9.70
2019-03-22T02:00:49.602Z,9.70
2019-03-22T02:03:20.548Z,9.70
2019-03-22T02:05:51.515Z,9.70
2019-03-22T02:08:22.787Z,9.70
2019-03-22T02:10:53.764Z,9.70
2019-03-22T02:13:26.029Z,9.70
2019-03-22T02:15:57.086Z,9.70
2019-03-22T02:18:28.085Z,9.70
2019-03-22T02:20:58.988Z,9.70
2019-03-22T02:23:29.898Z,9.70
2019-03-22T02:26:00.829Z,9.70
2019-03-22T02:28:31.710Z,9.70
2019-03-22T02:31:02.637Z,9.70
2019-03-22T02:33:33.589Z,9.60
2019-03-22T02:36:04.709Z,9.60
2019-03-22T02:38:35.667Z,9.50
2019-03-22T02:41:06.581Z,9.40
2019-03-22T02:43:37.466Z,9.40
2019-03-22T02:46:08.355Z,9.30
2019-03-22T02:48:39.190Z,9.20
2019-03-22T02:51:10.105Z,9.20
2019-03-22T02:53:41.045Z,9.10
2019-03-22T02:56:11.989Z,9.10
2019-03-22T02:58:42.867Z,9.10
2019-03-22T03:01:13.763Z,9.10
2019-03-22T03:03:44.651Z,9.10
2019-03-22T03:06:15.626Z,9.10
2019-03-22T03:08:46.391Z,9.10
2019-03-22T03:11:17.313Z,9.10
2019-03-22T03:13:48.229Z,9.10
2019-03-22T03:16:19.285Z,9.10
2019-03-22T03:18:50.177Z,9.10
2019-03-22T03:21:21.070Z,9.10
2019-03-22T03:23:51.952Z,9.20
2019-03-22T03:26:22.903Z,9.20
2019-03-22T03:28:53.812Z,9.20
2019-03-22T03:31:24.799Z,9.20
2019-03-22T03:33:55.785Z,9.10
2019-03-22T03:36:26.709Z,9.20
2019-03-22T03:38:57.618Z,9.10
2019-03-22T03:41:28.657Z,9.10
2019-03-22T03:43:59.571Z,9.10
2019-03-22T03:46:31.565Z,9.10
2019-03-22T03:49:02.497Z,9.10
2019-03-22T03:51:33.455Z,9.10
2019-03-22T03:54:04.404Z,9.10
2019-03-22T03:56:35.335Z,9.10
2019-03-22T03:59:06.401Z,9.10
2019-03-22T04:01:37.365Z,9.10
2019-03-22T04:04:08.351Z,9.20
2019-03-22T04:06:39.269Z,9.10
2019-03-22T04:09:10.739Z,9.10
2019-03-22T04:11:41.688Z,9.10
2019-03-22T04:14:12.853Z,9.10
2019-03-22T04:16:43.744Z,9.20
2019-03-22T04:19:14.689Z,9.20
2019-03-22T04:21:45.567Z,9.20
2019-03-22T04:24:16.473Z,9.20
2019-03-22T04:26:47.401Z,9.20
2019-03-22T04:29:18.355Z,9.20
2019-03-22T04:31:49.305Z,9.20
2019-03-22T04:34:20.332Z,9.20
2019-03-22T04:36:51.251Z,9.30
2019-03-22T04:39:22.333Z,9.20
2019-03-22T04:41:53.460Z,9.30
2019-03-22T04:44:24.341Z,9.20
2019-03-22T04:46:56.066Z,9.30
2019-03-22T04:49:29.038Z,9.30
2019-03-22T04:52:00.028Z,9.30
2019-03-22T04:54:34.430Z,9.40
2019-03-22T04:57:07.396Z,9.30
2019-03-22T04:59:39.888Z,9.40
2019-03-22T05:02:11.805Z,9.40
2019-03-22T05:04:44.874Z,9.40
2019-03-22T05:07:16.058Z,9.40
2019-03-22T05:09:47.360Z,9.40
2019-03-22T05:12:20.664Z,9.30
2019-03-22T05:14:53.705Z,9.30
2019-03-22T05:17:25.780Z,9.20
2019-03-22T05:19:58.394Z,9.30
2019-03-22T05:22:31.387Z,9.20
2019-03-22T05:25:04.172Z,9.20
2019-03-22T05:27:37.905Z,9.20
2019-03-22T05:30:11.053Z,9.30
2019-03-22T05:32:41.948Z,9.30
2019-03-22T05:35:12.850Z,9.30
2019-03-22T05:37:43.729Z,9.30
2019-03-22T05:40:14.606Z,9.30
2019-03-22T05:42:45.498Z,9.30
2019-03-22T05:45:16.408Z,9.30
2019-03-22T05:47:48.838Z,9.40
2019-03-22T05:50:19.722Z,9.30
2019-03-22T05:52:52.681Z,9.40
2019-03-22T05:55:23.212Z,9.40
2019-03-22T05:57:54.258Z,9.50
2019-03-22T06:00:25.168Z,9.50
2019-03-22T06:02:56.046Z,9.50
2019-03-22T06:05:26.937Z,9.60
2019-03-22T06:07:57.822Z,9.60
2019-03-22T06:10:28.746Z,9.60
2019-03-22T06:12:59.654Z,9.60
2019-03-22T06:15:30.531Z,9.70
2019-03-22T06:18:01.394Z,9.70
2019-03-22T06:20:32.307Z,9.70
2019-03-22T06:23:03.195Z,9.70
2019-03-22T06:25:34.074Z,9.80
2019-03-22T06:28:04.968Z,9.80
2019-03-22T06:30:35.828Z,9.80
2019-03-22T06:33:06.773Z,9.80
2019-03-22T06:35:37.566Z,9.90
2019-03-22T06:38:08.464Z,9.90
2019-03-22T06:40:39.330Z,9.90
2019-03-22T06:43:10.208Z,9.90
2019-03-22T06:45:41.099Z,10.00
2019-03-22T06:48:11.952Z,10.00
2019-03-22T06:50:42.878Z,10.00
2019-03-22T06:53:13.800Z,10.10
2019-03-22T06:55:44.698Z,10.10
2019-03-22T06:58:15.629Z,10.10
2019-03-22T07:00:46.551Z,10.20
2019-03-22T07:03:17.454Z,10.20
2019-03-22T07:05:48.625Z,10.20
2019-03-22T07:08:19.512Z,10.30
2019-03-22T07:10:50.427Z,10.30
2019-03-22T07:13:21.413Z,10.30
2019-03-22T07:15:52.320Z,10.40
2019-03-22T07:18:23.208Z,10.40
2019-03-22T07:20:54.091Z,10.50
2019-03-22T07:23:25.060Z,10.60
2019-03-22T07:25:55.889Z,10.70
2019-03-22T07:28:26.798Z,10.80
2019-03-22T07:30:57.717Z,10.80
2019-03-22T07:33:28.744Z,10.80
2019-03-22T07:35:59.669Z,10.90
2019-03-22T07:38:30.617Z,10.90
2019-03-22T07:41:01.545Z,10.90
2019-03-22T07:43:32.401Z,10.90
2019-03-22T07:46:03.648Z,10.90
2019-03-22T07:48:34.547Z,10.90
2019-03-22T07:51:05.417Z,10.90
2019-03-22T07:53:36.362Z,10.90
2019-03-22T07:56:07.503Z,10.80
2019-03-22T07:58:38.366Z,10.80
2019-03-22T08:01:09.215Z,10.80
2019-03-22T08:03:40.127Z,10.80
2019-03-22T08:06:11.004Z,10.80
2019-03-22T08:08:41.910Z,10.80
2019-03-22T08:11:12.786Z,10.80
2019-03-22T08:13:43.723Z,10.80
2019-03-22T08:16:14.583Z,10.80
2019-03-22T08:18:45.391Z,10.90
2019-03-22T08:21:16.247Z,11.00
2019-03-22T08:23:47.187Z,11.10
2019-03-22T08:26:18.138Z,11.20
2019-03-22T08:28:49.043Z,11.50
2019-03-22T08:31:19.952Z,11.70
2019-03-22T08:33:50.930Z,12.00
2019-03-22T08:36:21.740Z,12.30
2019-03-22T08:38:52.672Z,12.70
2019-03-22T08:41:23.950Z,13.00
2019-03-22T08:43:55.307Z,13.30
2019-03-22T08:46:26.114Z,13.50
2019-03-22T08:48:57.069Z,13.60
2019-03-22T08:51:29.928Z,13.50
2019-03-22T08:54:00.749Z,13.50
2019-03-22T08:56:31.632Z,13.40
2019-03-22T08:59:02.557Z,13.20
2019-03-22T09:01:33.407Z,13.10
2019-03-22T09:04:04.394Z,13.00
2019-03-22T09:06:35.233Z,13.00
2019-03-22T09:09:07.987Z,13.00
2019-03-22T09:11:39.165Z,13.00
2019-03-22T09:14:10.123Z,13.00
2019-03-22T09:16:40.975Z,13.10
2019-03-22T09:19:11.875Z,13.20
2019-03-22T09:21:42.745Z,13.20
2019-03-22T09:24:13.642Z,13.00
2019-03-22T09:26:47.907Z,13.10
2019-03-22T09:29:17.075Z,13.90
2019-03-22T09:31:48.018Z,15.10
2019-03-22T09:34:18.931Z,16.20
2019-03-22T09:36:50.125Z,17.20
2019-03-22T09:39:21.060Z,17.70
2019-03-22T09:41:52.027Z,17.40
2019-03-22T09:44:23.035Z,16.80
2019-03-22T09:46:54.040Z,16.10
2019-03-22T09:49:25.419Z,15.50
2019-03-22T09:51:56.293Z,15.40
2019-03-22T09:54:28.554Z,16.10
2019-03-22T09:56:59.585Z,17.30
2019-03-22T09:59:31.557Z,17.90
2019-03-22T10:02:04.003Z,17.40
2019-03-22T10:04:35.918Z,16.90
2019-03-22T10:07:06.914Z,17.00
2019-03-22T10:09:38.388Z,17.80
2019-03-22T10:12:09.270Z,18.50
2019-03-22T10:14:40.460Z,19.20
2019-03-22T10:17:11.443Z,20.00
2019-03-22T10:19:42.371Z,19.90
2019-03-22T10:22:13.242Z,19.10
2019-03-22T10:24:44.227Z,18.10
2019-03-22T10:27:15.103Z,17.20
2019-03-22T10:29:46.025Z,16.50
2019-03-22T10:32:16.859Z,16.10
2019-03-22T10:34:47.779Z,16.00
2019-03-22T10:37:18.632Z,15.90
2019-03-22T10:39:49.639Z,15.70
2019-03-22T10:42:20.487Z,15.80
2019-03-22T10:44:51.316Z,16.20
2019-03-22T10:47:22.307Z,17.30
2019-03-22T10:49:53.321Z,18.10
2019-03-22T10:52:24.187Z,18.10
2019-03-22T10:54:55.380Z,17.40
2019-03-22T10:57:26.319Z,16.70
2019-03-22T10:59:57.169Z,16.00
2019-03-22T11:02:28.055Z,15.50
2019-03-22T11:04:58.909Z,15.20
2019-03-22T11:07:30.859Z,15.00
2019-03-22T11:10:01.754Z,14.90
2019-03-22T11:12:32.637Z,14.80
2019-03-22T11:15:03.531Z,14.80
2019-03-22T11:17:34.439Z,14.80
2019-03-22T11:20:07.531Z,14.90
2019-03-22T11:22:38.611Z,14.90
2019-03-22T11:25:10.159Z,14.80
2019-03-22T11:27:41.141Z,14.60
2019-03-22T11:30:14.915Z,14.50
2019-03-22T11:32:45.939Z,14.50
2019-03-22T11:35:17.139Z,14.40
2019-03-22T11:37:47.992Z,14.90
2019-03-22T11:40:20.147Z,15.60
2019-03-22T11:42:51.554Z,15.70
2019-03-22T11:45:24.607Z,15.50
2019-03-22T11:47:55.683Z,15.20
2019-03-22T11:50:28.843Z,15.00
2019-03-22T11:52:59.163Z,14.90
2019-03-22T11:55:30.100Z,14.90
2019-03-22T11:58:01.011Z,15.20
2019-03-22T12:00:31.847Z,15.80
2019-03-22T12:03:02.795Z,16.00
2019-03-22T12:05:40.199Z,15.90
2019-03-22T12:08:06.605Z,15.70
2019-03-22T12:10:38.587Z,15.50
2019-03-22T12:13:09.427Z,15.50
2019-03-22T12:15:40.289Z,15.40
2019-03-22T12:18:11.138Z,15.40
2019-03-22T12:20:42.039Z,15.60
2019-03-22T12:23:12.879Z,16.30
2019-03-22T12:25:43.778Z,17.40
2019-03-22T12:28:14.683Z,18.60
2019-03-22T12:30:45.529Z,19.50
2019-03-22T12:33:16.382Z,19.60
2019-03-22T12:35:47.301Z,19.00
2019-03-22T12:38:18.177Z,18.00
2019-03-22T12:40:49.111Z,17.10
2019-03-22T12:43:20.015Z,16.70
2019-03-22T12:45:50.960Z,17.20
2019-03-22T12:48:21.795Z,18.10
2019-03-22T12:50:52.748Z,19.10
2019-03-22T12:53:23.596Z,19.80
2019-03-22T12:55:54.548Z,19.70
2019-03-22T12:58:25.598Z,18.80
2019-03-22T13:00:56.499Z,18.00
2019-03-22T13:03:27.403Z,17.30
2019-03-22T13:05:58.298Z,16.80
2019-03-22T13:08:29.239Z,16.30
2019-03-22T13:11:00.059Z,15.80
2019-03-22T13:13:30.911Z,15.50
2019-03-22T13:16:02.749Z,15.20
2019-03-22T13:18:33.603Z,15.10
2019-03-22T13:21:04.632Z,15.10
2019-03-22T13:23:35.428Z,15.10
2019-03-22T13:26:06.308Z,15.20
2019-03-22T13:28:37.144Z,15.20
2019-03-22T13:31:08.061Z,15.10
2019-03-22T13:33:38.962Z,15.00
2019-03-22T13:36:09.822Z,14.80
2019-03-22T13:38:40.730Z,14.70
2019-03-22T13:41:11.646Z,14.60
2019-03-22T13:43:42.525Z,14.50
2019-03-22T13:46:13.491Z,14.60
2019-03-22T13:48:44.321Z,14.60
2019-03-22T13:51:15.200Z,14.70
2019-03-22T13:53:46.160Z,14.70
2019-03-22T13:56:17.120Z,14.70
2019-03-22T13:58:47.966Z,14.70
2019-03-22T14:01:18.880Z,14.70
2019-03-22T14:03:49.809Z,14.80
2019-03-22T14:06:20.732Z,14.80
2019-03-22T14:08:51.611Z,14.80
2019-03-22T14:11:22.548Z,14.90
2019-03-22T14:13:53.397Z,14.80
2019-03-22T14:16:24.304Z,14.70
2019-03-22T14:18:55.142Z,14.60
2019-03-22T14:21:26.014Z,14.50
2019-03-22T14:23:56.877Z,14.50
2019-03-22T14:26:27.784Z,14.50
2019-03-22T14:28:58.742Z,14.50
2019-03-22T14:31:29.647Z,14.50
2019-03-22T14:34:00.466Z,14.50
2019-03-22T14:36:31.334Z,14.50
2019-03-22T14:39:02.241Z,14.50
2019-03-22T14:41:34.309Z,14.40
2019-03-22T14:44:06.040Z,14.40
2019-03-22T14:46:36.930Z,14.30
2019-03-22T14:49:07.808Z,14.30
2019-03-22T14:51:38.745Z,14.20
2019-03-22T14:54:09.600Z,14.10
2019-03-22T14:56:40.460Z,14.10
2019-03-22T14:59:11.444Z,14.10
2019-03-22T15:01:42.340Z,14.00
2019-03-22T15:04:13.183Z,13.90
2019-03-22T15:06:44.081Z,13.80
2019-03-22T15:09:14.940Z,13.80
2019-03-22T15:11:45.862Z,13.80
2019-03-22T15:14:54.010Z,13.90
2019-03-22T15:17:44.991Z,13.80
2019-03-22T15:20:35.889Z,13.70
2019-03-22T15:23:24.394Z,13.70
2019-03-22T15:26:22.669Z,13.70
2019-03-22T15:29:11.248Z,13.70
2019-03-22T15:32:03.893Z,13.70
2019-03-22T15:35:05.727Z,13.60
2019-03-22T15:37:54.088Z,13.50
2019-03-22T15:40:25.543Z,13.50
2019-03-22T15:42:56.409Z,13.40
2019-03-22T15:45:27.319Z,13.40
2019-03-22T15:47:58.169Z,13.40
2019-03-22T15:50:29.094Z,13.40
2019-03-22T15:53:00.015Z,13.50
2019-03-22T15:55:30.931Z,13.40
2019-03-22T15:58:01.833Z,13.40
2019-03-22T16:00:32.791Z,13.40
2019-03-22T16:03:03.734Z,13.40
2019-03-22T16:05:34.717Z,13.30
2019-03-22T16:08:06.019Z,13.30
2019-03-22T16:10:36.959Z,13.20
2019-03-22T16:13:07.836Z,13.20
2019-03-22T16:15:38.735Z,13.10
2019-03-22T16:18:09.659Z,13.00
2019-03-22T16:20:40.675Z,13.00
2019-03-22T16:23:11.544Z,13.00
2019-03-22T16:25:42.471Z,12.90
2019-03-22T16:28:13.403Z,12.80
2019-03-22T16:30:44.264Z,12.80
2019-03-22T16:33:15.233Z,12.70
2019-03-22T16:35:46.492Z,12.80
2019-03-22T16:38:17.409Z,12.70
2019-03-22T16:40:48.515Z,12.60
2019-03-22T16:43:20.490Z,12.60
2019-03-22T16:45:51.446Z,12.50
2019-03-22T16:48:22.316Z,12.50
2019-03-22T16:50:53.254Z,12.40
2019-03-22T16:53:24.444Z,12.30
2019-03-22T16:55:55.268Z,12.20
2019-03-22T16:58:26.141Z,12.20
2019-03-22T17:00:57.128Z,12.10
2019-03-22T17:03:28.021Z,12.00
2019-03-22T17:05:58.929Z,11.90
2019-03-22T17:08:30.577Z,11.90
2019-03-22T17:11:01.532Z,11.80
2019-03-22T17:13:32.371Z,11.70
2019-03-22T17:16:03.333Z,11.70
2019-03-22T17:18:34.383Z,11.60
2019-03-22T17:21:05.245Z,11.50
2019-03-22T17:23:36.146Z,11.50
2019-03-22T17:26:07.010Z,11.30
2019-03-22T17:28:37.967Z,11.20
2019-03-22T17:31:08.839Z,11.10
2019-03-22T17:33:39.948Z,11.00
2019-03-22T17:36:10.906Z,11.00
2019-03-22T17:38:42.586Z,10.90
2019-03-22T17:41:13.470Z,10.80
2019-03-22T17:43:45.322Z,10.70
2019-03-22T17:46:16.183Z,10.70
2019-03-22T17:48:47.054Z,10.60
2019-03-22T17:51:17.876Z,10.60
2019-03-22T17:53:48.750Z,10.60
2019-03-22T17:56:19.621Z,10.60
2019-03-22T17:58:50.566Z,10.50
2019-03-22T18:01:21.461Z,10.50
2019-03-22T18:03:52.397Z,10.40
2019-03-22T18:06:23.222Z,10.40
2019-03-22T18:08:54.147Z,10.40
2019-03-22T18:11:25.065Z,10.30
2019-03-22T18:13:55.983Z,10.30
2019-03-22T18:16:26.989Z,10.20
2019-03-22T18:18:57.957Z,10.20
2019-03-22T18:21:28.844Z,10.20
2019-03-22T18:23:59.801Z,10.10
2019-03-22T18:26:31.703Z,10.10
2019-03-22T18:29:02.581Z,10.00
2019-03-22T18:31:33.557Z,10.10
2019-03-22T18:34:04.427Z,10.00
2019-03-22T18:36:35.412Z,10.00
2019-03-22T18:39:09.056Z,10.00
2019-03-22T18:41:39.989Z,10.00
2019-03-22T18:44:10.856Z,10.10
2019-03-22T18:46:42.251Z,10.10
2019-03-22T18:49:13.141Z,10.00
2019-03-22T18:51:44.079Z,10.00
2019-03-22T18:54:15.073Z,10.10
2019-03-22T18:56:45.979Z,10.10
2019-03-22T18:59:17.966Z,10.10
2019-03-22T19:01:48.919Z,10.00
2019-03-22T19:04:19.779Z,10.00
2019-03-22T19:06:50.771Z,9.90
2019-03-22T19:09:21.677Z,9.90
2019-03-22T19:11:52.559Z,9.80
2019-03-22T19:14:23.464Z,9.80
2019-03-22T19:16:54.298Z,9.80
2019-03-22T19:19:25.185Z,9.70
2019-03-22T19:21:56.048Z,9.70
2019-03-22T19:24:26.926Z,9.60
2019-03-22T19:26:57.818Z,9.50
2019-03-22T19:29:28.800Z,9.50
2019-03-22T19:32:00.426Z,9.40
2019-03-22T19:34:31.435Z,9.40
2019-03-22T19:37:02.354Z,9.40
2019-03-22T19:39:33.226Z,9.30
2019-03-22T19:42:05.716Z,9.20
2019-03-22T19:44:36.592Z,9.20
2019-03-22T19:47:07.598Z,9.10
2019-03-22T19:49:38.432Z,9.10
2019-03-22T19:52:09.360Z,9.10
2019-03-22T19:54:40.308Z,9.00
2019-03-22T19:57:11.211Z,8.90
2019-03-22T19:59:42.460Z,8.90
2019-03-22T20:02:13.888Z,8.90
2019-03-22T20:04:44.786Z,9.00
2019-03-22T20:07:15.746Z,8.90
2019-03-22T20:09:46.683Z,8.90
2019-03-22T20:12:18.688Z,8.80
2019-03-22T20:14:49.645Z,8.80
2019-03-22T20:17:20.578Z,8.70
2019-03-22T20:19:51.531Z,8.70
2019-03-22T20:22:22.476Z,8.70
2019-03-22T20:24:53.492Z,8.70
2019-03-22T20:27:25.408Z,8.70
2019-03-22T20:29:56.384Z,8.60
2019-03-22T20:32:27.251Z,8.60
2019-03-22T20:34:58.207Z,8.60
2019-03-22T20:37:29.122Z,8.60
2019-03-22T20:39:59.969Z,8.60
2019-03-22T20:42:30.925Z,8.60
2019-03-22T20:45:01.840Z,8.60
2019-03-22T20:47:32.816Z,8.60
2019-03-22T20:50:04.038Z,8.50
2019-03-22T20:52:35.057Z,8.50
2019-03-22T20:55:07.349Z,8.40
2019-03-22T20:57:39.636Z,8.30
2019-03-22T21:00:12.989Z,8.20
2019-03-22T21:02:43.888Z,8.20
2019-03-22T21:05:14.954Z,8.20
2019-03-22T21:07:45.836Z,8.20
2019-03-22T21:10:16.764Z,8.10
2019-03-22T21:12:48.901Z,8.10
2019-03-22T21:15:24.224Z,8.00
2019-03-22T21:17:52.365Z,8.00
2019-03-22T21:20:23.288Z,8.00
2019-03-22T21:22:54.198Z,8.00
2019-03-22T21:25:26.211Z,8.00
2019-03-22T21:27:57.224Z,8.00
2019-03-22T21:30:28.239Z,8.00
2019-03-22T21:32:59.182Z,7.90
2019-03-22T21:35:37.279Z,7.90
2019-03-22T21:38:10.335Z,7.90
2019-03-22T21:40:34.936Z,7.80
2019-03-22T21:43:06.052Z,7.80
2019-03-22T21:45:37.146Z,7.80
2019-03-22T21:48:08.248Z,7.70
2019-03-22T21:50:39.127Z,7.60
2019-03-22T21:53:10.048Z,7.50
2019-03-22T21:55:40.921Z,7.40
2019-03-22T21:58:11.862Z,7.30
2019-03-22T22:00:42.752Z,7.30
2019-03-22T22:03:13.668Z,7.30
2019-03-22T22:05:48.034Z,7.30
2019-03-22T22:08:17.162Z,7.20
2019-03-22T22:10:55.541Z,7.20
2019-03-22T22:13:20.725Z,7.10
2019-03-22T22:15:52.189Z,7.10
2019-03-22T22:18:23.207Z,7.10
2019-03-22T22:20:54.105Z,7.10
2019-03-22T22:23:25.067Z,7.10
2019-03-22T22:25:56.254Z,7.10
2019-03-22T22:28:27.084Z,7.00
2019-03-22T22:30:58.051Z,7.00
2019-03-22T22:33:29.090Z,6.90
2019-03-22T22:36:00.179Z,6.90
2019-03-22T22:38:31.097Z,6.80
2019-03-22T22:41:02.049Z,6.80
2019-03-22T22:43:32.997Z,6.80
2019-03-22T22:46:03.852Z,6.70
2019-03-22T22:48:34.778Z,6.70
2019-03-22T22:51:05.788Z,6.60
2019-03-22T22:53:36.698Z,6.60
2019-03-22T22:56:07.577Z,6.60
2019-03-22T22:58:39.155Z,6.50
2019-03-22T23:01:10.015Z,6.50
2019-03-22T23:03:41.143Z,6.50
2019-03-22T23:06:12.145Z,6.50
2019-03-22T23:08:43.140Z,6.50
2019-03-22T23:11:14.171Z,6.40
2019-03-22T23:13:45.071Z,6.40
2019-03-22T23:16:16.052Z,6.40
2019-03-22T23:18:46.891Z,6.40
2019-03-22T23:21:17.757Z,6.40
2019-03-22T23:23:48.657Z,6.40
2019-03-22T23:26:19.583Z,6.30
2019-03-22T23:28:50.618Z,6.30
2019-03-22T23:31:21.777Z,6.30
2019-03-22T23:33:52.727Z,6.30
2019-03-22T23:36:23.647Z,6.30
2019-03-22T23:38:54.605Z,6.40
2019-03-22T23:41:25.559Z,6.40
2019-03-22T23:43:56.475Z,6.30
2019-03-22T23:46:27.355Z,6.30
2019-03-22T23:48:58.303Z,6.30
2019-03-22T23:51:29.219Z,6.30
2019-03-22T23:54:00.163Z,6.20
2019-03-22T23:56:30.985Z,6.20
2019-03-22T23:59:02.693Z,6.20
